sensor_id;sensor_type;location;lat;lon;timestamp;P1;durP1;ratioP1;P2;durP2;ratioP2
41721;SDS011;27407;24.142;-110.310;2023-07-13T00:01:31;12.05;;;2.60;;
41721;SDS011;27407;24.142;-110.310;2023-07-13T00:03:58;12.93;;;2.38;;
41721;SDS011;27407;24.142;-110.310;2023-07-13T00:06:24;22.60;;;3.97;;
41721;SDS011;27407;24.142;-110.310;2023-07-13T00:08:58;15.45;;;2.40;;
41721;SDS011;27407;24.142;-110.310;2023-07-13T00:11:25;12.07;;;2.60;;
41721;SDS011;27407;24.142;-110.310;2023-07-13T00:13:52;14.55;;;3.15;;
41721;SDS011;27407;24.142;-110.310;2023-07-13T00:16:19;11.38;;;2.08;;
41721;SDS011;27407;24.142;-110.310;2023-07-13T00:18:46;13.55;;;3.60;;
41721;SDS011;27407;24.142;-110.310;2023-07-13T00:21:13;10.98;;;2.40;;
41721;SDS011;27407;24.142;-110.310;2023-07-13T00:23:41;16.83;;;2.63;;
41721;SDS011;27407;24.142;-110.310;2023-07-13T00:26:09;6.40;;;2.40;;
41721;SDS011;27407;24.142;-110.310;2023-07-13T00:28:38;8.45;;;2.33;;
41721;SDS011;27407;24.142;-110.310;2023-07-13T00:31:05;6.22;;;2.30;;
41721;SDS011;27407;24.142;-110.310;2023-07-13T00:33:31;12.93;;;2.50;;
41721;SDS011;27407;24.142;-110.310;2023-07-13T00:35:58;19.75;;;3.00;;
41721;SDS011;27407;24.142;-110.310;2023-07-13T00:38:25;15.60;;;3.67;;
41721;SDS011;27407;24.142;-110.310;2023-07-13T00:40:51;8.90;;;1.95;;
41721;SDS011;27407;24.142;-110.310;2023-07-13T00:43:22;14.63;;;3.00;;
41721;SDS011;27407;24.142;-110.310;2023-07-13T00:48:23;8.50;;;2.33;;
41721;SDS011;27407;24.142;-110.310;2023-07-13T00:50:55;24.23;;;3.15;;
41721;SDS011;27407;24.142;-110.310;2023-07-13T00:53:25;13.93;;;2.38;;
41721;SDS011;27407;24.142;-110.310;2023-07-13T00:55:54;19.10;;;3.08;;
41721;SDS011;27407;24.142;-110.310;2023-07-13T00:58:22;9.93;;;2.05;;
41721;SDS011;27407;24.142;-110.310;2023-07-13T01:00:53;21.50;;;3.50;;
41721;SDS011;27407;24.142;-110.310;2023-07-13T01:03:20;10.27;;;2.50;;
41721;SDS011;27407;24.142;-110.310;2023-07-13T01:05:49;6.95;;;2.35;;
41721;SDS011;27407;24.142;-110.310;2023-07-13T01:08:19;9.55;;;2.45;;
41721;SDS011;27407;24.142;-110.310;2023-07-13T01:10:57;37.95;;;5.13;;
41721;SDS011;27407;24.142;-110.310;2023-07-13T01:13:24;11.35;;;2.65;;
41721;SDS011;27407;24.142;-110.310;2023-07-13T01:15:51;5.68;;;2.17;;
41721;SDS011;27407;24.142;-110.310;2023-07-13T01:18:21;12.85;;;2.47;;
41721;SDS011;27407;24.142;-110.310;2023-07-13T01:20:59;24.77;;;3.63;;
41721;SDS011;27407;24.142;-110.310;2023-07-13T01:23:28;14.98;;;2.75;;
41721;SDS011;27407;24.142;-110.310;2023-07-13T01:25:57;12.10;;;2.75;;
41721;SDS011;27407;24.142;-110.310;2023-07-13T01:28:25;7.28;;;2.80;;
41721;SDS011;27407;24.142;-110.310;2023-07-13T01:30:52;16.83;;;3.53;;
41721;SDS011;27407;24.142;-110.310;2023-07-13T01:33:20;31.63;;;5.30;;
41721;SDS011;27407;24.142;-110.310;2023-07-13T01:35:47;9.00;;;2.65;;
41721;SDS011;27407;24.142;-110.310;2023-07-13T01:38:15;29.45;;;4.57;;
41721;SDS011;27407;24.142;-110.310;2023-07-13T01:40:44;24.30;;;3.45;;
41721;SDS011;27407;24.142;-110.310;2023-07-13T01:43:10;17.63;;;2.92;;
41721;SDS011;27407;24.142;-110.310;2023-07-13T01:45:37;14.70;;;2.63;;
41721;SDS011;27407;24.142;-110.310;2023-07-13T01:48:04;58.22;;;5.65;;
41721;SDS011;27407;24.142;-110.310;2023-07-13T01:50:32;9.20;;;2.60;;
41721;SDS011;27407;24.142;-110.310;2023-07-13T01:52:59;10.77;;;2.90;;
41721;SDS011;27407;24.142;-110.310;2023-07-13T01:55:27;6.43;;;2.75;;
41721;SDS011;27407;24.142;-110.310;2023-07-13T01:57:54;12.07;;;3.00;;
41721;SDS011;27407;24.142;-110.310;2023-07-13T02:00:21;15.73;;;3.33;;
41721;SDS011;27407;24.142;-110.310;2023-07-13T02:02:50;17.05;;;2.53;;
41721;SDS011;27407;24.142;-110.310;2023-07-13T02:05:17;13.25;;;2.33;;
41721;SDS011;27407;24.142;-110.310;2023-07-13T02:07:44;27.77;;;3.22;;
41721;SDS011;27407;24.142;-110.310;2023-07-13T02:10:11;11.10;;;2.80;;
41721;SDS011;27407;24.142;-110.310;2023-07-13T02:12:38;22.77;;;3.65;;
41721;SDS011;27407;24.142;-110.310;2023-07-13T02:15:06;24.48;;;3.20;;
41721;SDS011;27407;24.142;-110.310;2023-07-13T02:17:33;8.85;;;2.92;;
41721;SDS011;27407;24.142;-110.310;2023-07-13T02:20:02;6.70;;;2.85;;
41721;SDS011;27407;24.142;-110.310;2023-07-13T02:22:30;12.98;;;3.10;;
41721;SDS011;27407;24.142;-110.310;2023-07-13T02:24:56;6.05;;;3.00;;
41721;SDS011;27407;24.142;-110.310;2023-07-13T02:27:23;22.63;;;3.67;;
41721;SDS011;27407;24.142;-110.310;2023-07-13T02:29:49;43.45;;;5.47;;
41721;SDS011;27407;24.142;-110.310;2023-07-13T02:32:17;10.50;;;3.35;;
41721;SDS011;27407;24.142;-110.310;2023-07-13T02:34:44;7.00;;;3.00;;
41721;SDS011;27407;24.142;-110.310;2023-07-13T02:37:12;15.23;;;4.43;;
41721;SDS011;27407;24.142;-110.310;2023-07-13T02:39:39;16.70;;;4.30;;
41721;SDS011;27407;24.142;-110.310;2023-07-13T02:42:06;11.50;;;3.75;;
41721;SDS011;27407;24.142;-110.310;2023-07-13T02:44:33;6.75;;;3.95;;
41721;SDS011;27407;24.142;-110.310;2023-07-13T02:46:59;11.30;;;4.15;;
41721;SDS011;27407;24.142;-110.310;2023-07-13T02:49:26;6.93;;;4.30;;
41721;SDS011;27407;24.142;-110.310;2023-07-13T02:51:53;12.15;;;4.95;;
41721;SDS011;27407;24.142;-110.310;2023-07-13T02:54:19;10.68;;;5.03;;
41721;SDS011;27407;24.142;-110.310;2023-07-13T02:56:46;44.00;;;6.43;;
41721;SDS011;27407;24.142;-110.310;2023-07-13T02:59:12;23.75;;;6.60;;
41721;SDS011;27407;24.142;-110.310;2023-07-13T03:01:39;27.67;;;5.82;;
41721;SDS011;27407;24.142;-110.310;2023-07-13T03:04:06;19.52;;;5.78;;
41721;SDS011;27407;24.142;-110.310;2023-07-13T03:06:33;9.73;;;4.68;;
41721;SDS011;27407;24.142;-110.310;2023-07-13T03:08:59;18.02;;;5.47;;
41721;SDS011;27407;24.142;-110.310;2023-07-13T03:11:26;11.20;;;4.97;;
41721;SDS011;27407;24.142;-110.310;2023-07-13T03:13:53;20.13;;;4.75;;
41721;SDS011;27407;24.142;-110.310;2023-07-13T03:16:20;14.88;;;5.35;;
41721;SDS011;27407;24.142;-110.310;2023-07-13T03:18:47;21.65;;;4.80;;
41721;SDS011;27407;24.142;-110.310;2023-07-13T03:21:15;8.57;;;4.53;;
41721;SDS011;27407;24.142;-110.310;2023-07-13T03:23:42;13.90;;;4.30;;
41721;SDS011;27407;24.142;-110.310;2023-07-13T03:26:10;9.98;;;4.00;;
41721;SDS011;27407;24.142;-110.310;2023-07-13T03:28:39;13.95;;;3.95;;
41721;SDS011;27407;24.142;-110.310;2023-07-13T03:31:07;13.05;;;3.65;;
41721;SDS011;27407;24.142;-110.310;2023-07-13T03:33:36;14.63;;;4.38;;
41721;SDS011;27407;24.142;-110.310;2023-07-13T03:36:04;14.25;;;3.58;;
41721;SDS011;27407;24.142;-110.310;2023-07-13T03:38:31;16.73;;;3.80;;
41721;SDS011;27407;24.142;-110.310;2023-07-13T03:40:58;17.92;;;3.95;;
41721;SDS011;27407;24.142;-110.310;2023-07-13T03:43:25;11.27;;;3.92;;
41721;SDS011;27407;24.142;-110.310;2023-07-13T03:45:52;20.08;;;5.10;;
41721;SDS011;27407;24.142;-110.310;2023-07-13T03:48:19;23.58;;;4.82;;
41721;SDS011;27407;24.142;-110.310;2023-07-13T03:50:46;63.85;;;7.65;;
41721;SDS011;27407;24.142;-110.310;2023-07-13T03:53:14;28.23;;;4.47;;
41721;SDS011;27407;24.142;-110.310;2023-07-13T03:55:41;20.85;;;4.00;;
41721;SDS011;27407;24.142;-110.310;2023-07-13T04:00:58;15.15;;;3.15;;
41721;SDS011;27407;24.142;-110.310;2023-07-13T04:03:28;22.10;;;3.53;;
41721;SDS011;27407;24.142;-110.310;2023-07-13T04:05:58;10.73;;;2.80;;
41721;SDS011;27407;24.142;-110.310;2023-07-13T04:08:29;4.72;;;2.42;;
41721;SDS011;27407;24.142;-110.310;2023-07-13T04:10:58;12.93;;;2.70;;
41721;SDS011;27407;24.142;-110.310;2023-07-13T04:13:26;8.45;;;2.92;;
41721;SDS011;27407;24.142;-110.310;2023-07-13T04:15:53;16.33;;;2.42;;
41721;SDS011;27407;24.142;-110.310;2023-07-13T04:18:20;11.75;;;3.28;;
41721;SDS011;27407;24.142;-110.310;2023-07-13T04:20:47;15.27;;;2.72;;
41721;SDS011;27407;24.142;-110.310;2023-07-13T04:23:15;22.63;;;2.63;;
41721;SDS011;27407;24.142;-110.310;2023-07-13T04:25:44;9.82;;;2.65;;
41721;SDS011;27407;24.142;-110.310;2023-07-13T04:28:15;13.32;;;2.50;;
41721;SDS011;27407;24.142;-110.310;2023-07-13T04:30:43;17.80;;;2.53;;
41721;SDS011;27407;24.142;-110.310;2023-07-13T04:33:10;8.35;;;2.00;;
41721;SDS011;27407;24.142;-110.310;2023-07-13T04:35:37;6.85;;;2.10;;
41721;SDS011;27407;24.142;-110.310;2023-07-13T04:38:04;7.97;;;2.30;;
41721;SDS011;27407;24.142;-110.310;2023-07-13T04:40:31;8.75;;;2.03;;
41721;SDS011;27407;24.142;-110.310;2023-07-13T04:42:57;7.47;;;2.45;;
41721;SDS011;27407;24.142;-110.310;2023-07-13T04:45:26;10.75;;;2.60;;
41721;SDS011;27407;24.142;-110.310;2023-07-13T04:47:52;6.85;;;2.47;;
41721;SDS011;27407;24.142;-110.310;2023-07-13T04:50:19;7.30;;;2.08;;
41721;SDS011;27407;24.142;-110.310;2023-07-13T04:52:51;9.93;;;2.10;;
41721;SDS011;27407;24.142;-110.310;2023-07-13T04:55:18;7.00;;;2.20;;
41721;SDS011;27407;24.142;-110.310;2023-07-13T04:57:46;20.33;;;2.63;;
41721;SDS011;27407;24.142;-110.310;2023-07-13T05:00:13;15.13;;;3.08;;
41721;SDS011;27407;24.142;-110.310;2023-07-13T05:02:44;12.82;;;2.53;;
41721;SDS011;27407;24.142;-110.310;2023-07-13T05:05:11;28.95;;;3.35;;
41721;SDS011;27407;24.142;-110.310;2023-07-13T05:07:38;10.75;;;2.63;;
41721;SDS011;27407;24.142;-110.310;2023-07-13T05:10:05;11.00;;;2.03;;
41721;SDS011;27407;24.142;-110.310;2023-07-13T05:12:32;9.18;;;2.45;;
41721;SDS011;27407;24.142;-110.310;2023-07-13T05:14:59;6.68;;;2.20;;
41721;SDS011;27407;24.142;-110.310;2023-07-13T05:17:25;7.38;;;2.08;;
41721;SDS011;27407;24.142;-110.310;2023-07-13T05:19:52;10.13;;;2.10;;
41721;SDS011;27407;24.142;-110.310;2023-07-13T05:22:19;6.15;;;2.13;;
41721;SDS011;27407;24.142;-110.310;2023-07-13T05:24:45;9.18;;;1.55;;
41721;SDS011;27407;24.142;-110.310;2023-07-13T05:27:12;8.75;;;2.00;;
41721;SDS011;27407;24.142;-110.310;2023-07-13T05:29:38;5.35;;;1.77;;
41721;SDS011;27407;24.142;-110.310;2023-07-13T05:32:05;8.68;;;1.98;;
41721;SDS011;27407;24.142;-110.310;2023-07-13T05:34:32;15.13;;;2.15;;
41721;SDS011;27407;24.142;-110.310;2023-07-13T05:36:59;9.02;;;2.50;;
41721;SDS011;27407;24.142;-110.310;2023-07-13T05:39:25;8.25;;;2.13;;
41721;SDS011;27407;24.142;-110.310;2023-07-13T05:41:53;6.05;;;2.35;;
41721;SDS011;27407;24.142;-110.310;2023-07-13T05:44:19;9.63;;;2.42;;
41721;SDS011;27407;24.142;-110.310;2023-07-13T05:46:47;7.90;;;2.47;;
41721;SDS011;27407;24.142;-110.310;2023-07-13T05:49:14;8.63;;;2.63;;
41721;SDS011;27407;24.142;-110.310;2023-07-13T05:51:41;6.00;;;2.53;;
41721;SDS011;27407;24.142;-110.310;2023-07-13T05:54:07;7.57;;;2.70;;
41721;SDS011;27407;24.142;-110.310;2023-07-13T05:56:34;5.78;;;2.60;;
41721;SDS011;27407;24.142;-110.310;2023-07-13T05:59:00;12.82;;;2.72;;
41721;SDS011;27407;24.142;-110.310;2023-07-13T06:01:27;6.38;;;2.72;;
41721;SDS011;27407;24.142;-110.310;2023-07-13T06:03:55;17.98;;;3.30;;
41721;SDS011;27407;24.142;-110.310;2023-07-13T06:06:21;8.63;;;2.78;;
41721;SDS011;27407;24.142;-110.310;2023-07-13T06:08:48;7.78;;;2.67;;
41721;SDS011;27407;24.142;-110.310;2023-07-13T06:13:44;7.70;;;2.33;;
41721;SDS011;27407;24.142;-110.310;2023-07-13T06:16:11;6.82;;;3.22;;
41721;SDS011;27407;24.142;-110.310;2023-07-13T06:18:38;10.43;;;3.20;;
41721;SDS011;27407;24.142;-110.310;2023-07-13T06:21:16;8.50;;;2.92;;
41721;SDS011;27407;24.142;-110.310;2023-07-13T06:23:45;5.63;;;3.08;;
41721;SDS011;27407;24.142;-110.310;2023-07-13T06:26:16;11.68;;;3.00;;
41721;SDS011;27407;24.142;-110.310;2023-07-13T06:28:44;8.65;;;2.60;;
41721;SDS011;27407;24.142;-110.310;2023-07-13T06:31:11;4.78;;;2.00;;
41721;SDS011;27407;24.142;-110.310;2023-07-13T06:33:46;5.82;;;2.72;;
41721;SDS011;27407;24.142;-110.310;2023-07-13T06:36:19;9.27;;;3.10;;
41721;SDS011;27407;24.142;-110.310;2023-07-13T06:38:46;6.80;;;2.47;;
41721;SDS011;27407;24.142;-110.310;2023-07-13T06:41:13;18.67;;;3.03;;
41721;SDS011;27407;24.142;-110.310;2023-07-13T06:43:39;5.68;;;2.50;;
41721;SDS011;27407;24.142;-110.310;2023-07-13T06:46:06;5.65;;;2.83;;
41721;SDS011;27407;24.142;-110.310;2023-07-13T06:48:33;5.78;;;2.35;;
41721;SDS011;27407;24.142;-110.310;2023-07-13T06:51:01;6.00;;;2.40;;
41721;SDS011;27407;24.142;-110.310;2023-07-13T06:53:28;5.75;;;2.25;;
41721;SDS011;27407;24.142;-110.310;2023-07-13T06:55:55;4.05;;;2.40;;
41721;SDS011;27407;24.142;-110.310;2023-07-13T06:58:22;6.97;;;2.30;;
41721;SDS011;27407;24.142;-110.310;2023-07-13T07:00:50;7.53;;;2.75;;
41721;SDS011;27407;24.142;-110.310;2023-07-13T07:03:17;7.22;;;2.78;;
41721;SDS011;27407;24.142;-110.310;2023-07-13T07:05:44;7.07;;;3.25;;
41721;SDS011;27407;24.142;-110.310;2023-07-13T07:08:11;5.00;;;2.65;;
41721;SDS011;27407;24.142;-110.310;2023-07-13T07:10:38;8.20;;;2.95;;
41721;SDS011;27407;24.142;-110.310;2023-07-13T07:13:05;4.63;;;2.80;;
41721;SDS011;27407;24.142;-110.310;2023-07-13T07:15:32;5.20;;;2.78;;
41721;SDS011;27407;24.142;-110.310;2023-07-13T07:17:59;4.65;;;2.50;;
41721;SDS011;27407;24.142;-110.310;2023-07-13T07:20:26;9.48;;;3.20;;
41721;SDS011;27407;24.142;-110.310;2023-07-13T07:22:53;6.32;;;2.75;;
41721;SDS011;27407;24.142;-110.310;2023-07-13T07:25:19;6.60;;;2.67;;
41721;SDS011;27407;24.142;-110.310;2023-07-13T07:27:46;7.93;;;2.88;;
41721;SDS011;27407;24.142;-110.310;2023-07-13T07:30:13;5.68;;;2.92;;
41721;SDS011;27407;24.142;-110.310;2023-07-13T07:32:40;4.05;;;2.90;;
41721;SDS011;27407;24.142;-110.310;2023-07-13T07:35:07;6.78;;;2.75;;
41721;SDS011;27407;24.142;-110.310;2023-07-13T07:37:33;10.85;;;2.90;;
41721;SDS011;27407;24.142;-110.310;2023-07-13T07:40:00;7.72;;;2.47;;
41721;SDS011;27407;24.142;-110.310;2023-07-13T07:42:27;6.78;;;2.72;;
41721;SDS011;27407;24.142;-110.310;2023-07-13T07:44:54;9.38;;;3.00;;
41721;SDS011;27407;24.142;-110.310;2023-07-13T07:47:21;12.05;;;1.77;;
41721;SDS011;27407;24.142;-110.310;2023-07-13T07:49:49;3.35;;;1.80;;
41721;SDS011;27407;24.142;-110.310;2023-07-13T07:52:16;5.70;;;2.35;;
41721;SDS011;27407;24.142;-110.310;2023-07-13T07:54:42;5.35;;;2.00;;
41721;SDS011;27407;24.142;-110.310;2023-07-13T07:57:09;11.93;;;2.20;;
41721;SDS011;27407;24.142;-110.310;2023-07-13T07:59:36;10.38;;;2.70;;
41721;SDS011;27407;24.142;-110.310;2023-07-13T08:02:03;4.78;;;2.35;;
41721;SDS011;27407;24.142;-110.310;2023-07-13T08:04:30;3.83;;;2.22;;
41721;SDS011;27407;24.142;-110.310;2023-07-13T08:06:57;6.47;;;2.42;;
41721;SDS011;27407;24.142;-110.310;2023-07-13T08:09:24;10.82;;;2.40;;
41721;SDS011;27407;24.142;-110.310;2023-07-13T08:11:50;4.25;;;2.40;;
41721;SDS011;27407;24.142;-110.310;2023-07-13T08:14:17;10.65;;;2.72;;
41721;SDS011;27407;24.142;-110.310;2023-07-13T08:16:44;6.20;;;2.10;;
41721;SDS011;27407;24.142;-110.310;2023-07-13T08:19:11;3.80;;;2.03;;
41721;SDS011;27407;24.142;-110.310;2023-07-13T08:21:38;8.43;;;2.63;;
41721;SDS011;27407;24.142;-110.310;2023-07-13T08:24:04;3.83;;;2.30;;
41721;SDS011;27407;24.142;-110.310;2023-07-13T08:26:31;3.80;;;2.17;;
41721;SDS011;27407;24.142;-110.310;2023-07-13T08:28:58;2.90;;;1.67;;
41721;SDS011;27407;24.142;-110.310;2023-07-13T08:31:24;4.85;;;1.98;;
41721;SDS011;27407;24.142;-110.310;2023-07-13T08:33:51;3.47;;;1.85;;
41721;SDS011;27407;24.142;-110.310;2023-07-13T08:36:18;8.65;;;2.25;;
41721;SDS011;27407;24.142;-110.310;2023-07-13T08:38:44;5.55;;;2.00;;
41721;SDS011;27407;24.142;-110.310;2023-07-13T08:41:15;4.93;;;1.80;;
41721;SDS011;27407;24.142;-110.310;2023-07-13T08:43:45;6.40;;;2.10;;
41721;SDS011;27407;24.142;-110.310;2023-07-13T08:46:19;3.00;;;1.65;;
41721;SDS011;27407;24.142;-110.310;2023-07-13T08:49:10;8.05;;;1.92;;
41721;SDS011;27407;24.142;-110.310;2023-07-13T08:51:49;1.95;;;1.38;;
41721;SDS011;27407;24.142;-110.310;2023-07-13T08:54:22;2.60;;;1.83;;
41721;SDS011;27407;24.142;-110.310;2023-07-13T08:56:54;2.58;;;1.35;;
41721;SDS011;27407;24.142;-110.310;2023-07-13T08:59:24;3.67;;;1.67;;
41721;SDS011;27407;24.142;-110.310;2023-07-13T09:04:50;6.03;;;1.58;;
41721;SDS011;27407;24.142;-110.310;2023-07-13T09:08:29;5.28;;;1.98;;
41721;SDS011;27407;24.142;-110.310;2023-07-13T09:10:31;9.45;;;1.85;;
41721;SDS011;27407;24.142;-110.310;2023-07-13T09:16:32;6.40;;;1.63;;
41721;SDS011;27407;24.142;-110.310;2023-07-13T09:19:02;3.08;;;1.20;;
41721;SDS011;27407;24.142;-110.310;2023-07-13T09:21:34;3.35;;;1.20;;
41721;SDS011;27407;24.142;-110.310;2023-07-13T09:26:55;2.97;;;1.42;;
41721;SDS011;27407;24.142;-110.310;2023-07-13T09:29:30;5.10;;;1.30;;
41721;SDS011;27407;24.142;-110.310;2023-07-13T09:32:04;4.75;;;1.45;;
41721;SDS011;27407;24.142;-110.310;2023-07-13T09:34:34;5.45;;;1.48;;
41721;SDS011;27407;24.142;-110.310;2023-07-13T09:37:01;4.70;;;1.92;;
41721;SDS011;27407;24.142;-110.310;2023-07-13T09:39:30;4.45;;;2.00;;
41721;SDS011;27407;24.142;-110.310;2023-07-13T09:42:16;4.95;;;1.90;;
41721;SDS011;27407;24.142;-110.310;2023-07-13T09:47:20;3.90;;;1.80;;
41721;SDS011;27407;24.142;-110.310;2023-07-13T09:49:53;1.65;;;1.20;;
41721;SDS011;27407;24.142;-110.310;2023-07-13T09:52:23;3.63;;;1.70;;
41721;SDS011;27407;24.142;-110.310;2023-07-13T09:54:53;8.63;;;1.80;;
41721;SDS011;27407;24.142;-110.310;2023-07-13T09:57:25;3.38;;;1.70;;
41721;SDS011;27407;24.142;-110.310;2023-07-13T09:59:53;5.70;;;1.48;;
41721;SDS011;27407;24.142;-110.310;2023-07-13T10:02:29;2.60;;;1.48;;
41721;SDS011;27407;24.142;-110.310;2023-07-13T10:07:30;2.75;;;1.55;;
41721;SDS011;27407;24.142;-110.310;2023-07-13T10:09:59;5.60;;;1.65;;
41721;SDS011;27407;24.142;-110.310;2023-07-13T10:12:27;3.78;;;1.80;;
41721;SDS011;27407;24.142;-110.310;2023-07-13T10:14:56;5.32;;;1.50;;
41721;SDS011;27407;24.142;-110.310;2023-07-13T10:17:31;3.63;;;1.60;;
41721;SDS011;27407;24.142;-110.310;2023-07-13T10:20:03;4.45;;;1.65;;
41721;SDS011;27407;24.142;-110.310;2023-07-13T10:22:44;3.60;;;1.48;;
41721;SDS011;27407;24.142;-110.310;2023-07-13T10:25:20;3.95;;;1.73;;
41721;SDS011;27407;24.142;-110.310;2023-07-13T10:30:57;4.50;;;1.55;;
41721;SDS011;27407;24.142;-110.310;2023-07-13T10:33:26;3.92;;;1.70;;
41721;SDS011;27407;24.142;-110.310;2023-07-13T10:35:54;2.42;;;1.40;;
41721;SDS011;27407;24.142;-110.310;2023-07-13T10:38:29;3.20;;;1.40;;
41721;SDS011;27407;24.142;-110.310;2023-07-13T10:43:28;3.05;;;1.70;;
41721;SDS011;27407;24.142;-110.310;2023-07-13T10:46:03;3.00;;;1.50;;
41721;SDS011;27407;24.142;-110.310;2023-07-13T10:48:35;2.88;;;1.70;;
41721;SDS011;27407;24.142;-110.310;2023-07-13T10:51:03;3.60;;;1.35;;
41721;SDS011;27407;24.142;-110.310;2023-07-13T10:53:35;3.45;;;1.48;;
41721;SDS011;27407;24.142;-110.310;2023-07-13T10:56:06;3.25;;;1.50;;
41721;SDS011;27407;24.142;-110.310;2023-07-13T10:59:27;3.10;;;1.50;;
41721;SDS011;27407;24.142;-110.310;2023-07-13T11:01:55;2.05;;;1.50;;
41721;SDS011;27407;24.142;-110.310;2023-07-13T11:04:23;4.60;;;1.60;;
41721;SDS011;27407;24.142;-110.310;2023-07-13T11:06:59;4.47;;;1.80;;
41721;SDS011;27407;24.142;-110.310;2023-07-13T11:09:37;3.15;;;1.65;;
41721;SDS011;27407;24.142;-110.310;2023-07-13T11:12:07;4.25;;;1.33;;
41721;SDS011;27407;24.142;-110.310;2023-07-13T11:22:42;2.67;;;1.55;;
41721;SDS011;27407;24.142;-110.310;2023-07-13T11:25:26;2.22;;;1.42;;
41721;SDS011;27407;24.142;-110.310;2023-07-13T11:28:06;3.10;;;1.65;;
41721;SDS011;27407;24.142;-110.310;2023-07-13T11:30:37;3.15;;;1.60;;
41721;SDS011;27407;24.142;-110.310;2023-07-13T11:33:18;4.75;;;1.50;;
41721;SDS011;27407;24.142;-110.310;2023-07-13T11:41:59;3.88;;;1.92;;
41721;SDS011;27407;24.142;-110.310;2023-07-13T11:44:32;7.10;;;1.38;;
41721;SDS011;27407;24.142;-110.310;2023-07-13T11:47:00;4.32;;;1.50;;
41721;SDS011;27407;24.142;-110.310;2023-07-13T11:49:44;3.80;;;1.88;;
41721;SDS011;27407;24.142;-110.310;2023-07-13T11:52:18;6.40;;;1.02;;
41721;SDS011;27407;24.142;-110.310;2023-07-13T11:54:52;2.53;;;1.30;;
41721;SDS011;27407;24.142;-110.310;2023-07-13T11:59:54;2.30;;;1.00;;
41721;SDS011;27407;24.142;-110.310;2023-07-13T12:02:43;2.33;;;1.17;;
41721;SDS011;27407;24.142;-110.310;2023-07-13T12:05:14;2.47;;;1.30;;
41721;SDS011;27407;24.142;-110.310;2023-07-13T12:07:49;5.35;;;1.15;;
41721;SDS011;27407;24.142;-110.310;2023-07-13T12:15:36;8.70;;;1.83;;
41721;SDS011;27407;24.142;-110.310;2023-07-13T12:18:12;3.75;;;1.40;;
41721;SDS011;27407;24.142;-110.310;2023-07-13T12:20:46;3.10;;;1.50;;
41721;SDS011;27407;24.142;-110.310;2023-07-13T12:23:25;4.13;;;1.50;;
41721;SDS011;27407;24.142;-110.310;2023-07-13T12:25:57;3.83;;;1.30;;
41721;SDS011;27407;24.142;-110.310;2023-07-13T12:33:57;3.17;;;1.33;;
41721;SDS011;27407;24.142;-110.310;2023-07-13T12:36:24;2.25;;;1.45;;
41721;SDS011;27407;24.142;-110.310;2023-07-13T12:38:51;3.13;;;1.45;;
41721;SDS011;27407;24.142;-110.310;2023-07-13T12:41:18;3.58;;;1.63;;
41721;SDS011;27407;24.142;-110.310;2023-07-13T12:43:46;2.17;;;1.40;;
41721;SDS011;27407;24.142;-110.310;2023-07-13T12:46:16;9.23;;;1.83;;
41721;SDS011;27407;24.142;-110.310;2023-07-13T12:48:48;8.25;;;1.55;;
41721;SDS011;27407;24.142;-110.310;2023-07-13T12:51:17;4.80;;;1.83;;
41721;SDS011;27407;24.142;-110.310;2023-07-13T12:53:50;14.02;;;1.58;;
41721;SDS011;27407;24.142;-110.310;2023-07-13T12:56:25;21.83;;;3.20;;
41721;SDS011;27407;24.142;-110.310;2023-07-13T12:58:57;6.35;;;1.55;;
41721;SDS011;27407;24.142;-110.310;2023-07-13T13:01:27;1.77;;;1.25;;
41721;SDS011;27407;24.142;-110.310;2023-07-13T13:03:55;6.45;;;1.95;;
41721;SDS011;27407;24.142;-110.310;2023-07-13T13:06:26;8.02;;;1.80;;
41721;SDS011;27407;24.142;-110.310;2023-07-13T13:08:56;7.72;;;1.90;;
41721;SDS011;27407;24.142;-110.310;2023-07-13T13:11:24;21.67;;;2.42;;
41721;SDS011;27407;24.142;-110.310;2023-07-13T13:13:52;4.32;;;1.58;;
41721;SDS011;27407;24.142;-110.310;2023-07-13T13:19:01;14.00;;;1.73;;
41721;SDS011;27407;24.142;-110.310;2023-07-13T13:21:42;18.90;;;2.40;;
41721;SDS011;27407;24.142;-110.310;2023-07-13T13:24:16;6.50;;;1.65;;
41721;SDS011;27407;24.142;-110.310;2023-07-13T13:26:45;11.82;;;1.90;;
41721;SDS011;27407;24.142;-110.310;2023-07-13T13:29:18;9.23;;;1.73;;
41721;SDS011;27407;24.142;-110.310;2023-07-13T13:31:47;13.32;;;2.40;;
41721;SDS011;27407;24.142;-110.310;2023-07-13T13:34:15;9.73;;;1.83;;
41721;SDS011;27407;24.142;-110.310;2023-07-13T13:36:44;13.63;;;3.22;;
41721;SDS011;27407;24.142;-110.310;2023-07-13T13:39:20;17.80;;;2.55;;
41721;SDS011;27407;24.142;-110.310;2023-07-13T13:41:49;12.60;;;2.28;;
41721;SDS011;27407;24.142;-110.310;2023-07-13T13:44:17;5.88;;;2.13;;
41721;SDS011;27407;24.142;-110.310;2023-07-13T13:46:47;8.45;;;2.20;;
41721;SDS011;27407;24.142;-110.310;2023-07-13T13:49:16;22.40;;;3.00;;
41721;SDS011;27407;24.142;-110.310;2023-07-13T13:51:46;17.20;;;2.85;;
41721;SDS011;27407;24.142;-110.310;2023-07-13T13:54:14;15.18;;;2.13;;
41721;SDS011;27407;24.142;-110.310;2023-07-13T13:56:42;25.33;;;3.15;;
41721;SDS011;27407;24.142;-110.310;2023-07-13T13:59:10;10.93;;;2.28;;
41721;SDS011;27407;24.142;-110.310;2023-07-13T14:01:37;18.38;;;3.00;;
41721;SDS011;27407;24.142;-110.310;2023-07-13T14:04:04;18.13;;;2.53;;
41721;SDS011;27407;24.142;-110.310;2023-07-13T14:06:32;27.30;;;3.17;;
41721;SDS011;27407;24.142;-110.310;2023-07-13T14:09:00;18.00;;;2.50;;
41721;SDS011;27407;24.142;-110.310;2023-07-13T14:11:27;16.63;;;2.30;;
41721;SDS011;27407;24.142;-110.310;2023-07-13T14:14:07;14.45;;;2.25;;
41721;SDS011;27407;24.142;-110.310;2023-07-13T14:16:46;14.13;;;3.28;;
41721;SDS011;27407;24.142;-110.310;2023-07-13T14:19:19;29.20;;;3.83;;
41721;SDS011;27407;24.142;-110.310;2023-07-13T14:21:46;9.02;;;2.45;;
41721;SDS011;27407;24.142;-110.310;2023-07-13T14:24:18;18.63;;;2.83;;
41721;SDS011;27407;24.142;-110.310;2023-07-13T14:26:51;27.50;;;3.65;;
41721;SDS011;27407;24.142;-110.310;2023-07-13T14:29:25;12.18;;;2.60;;
41721;SDS011;27407;24.142;-110.310;2023-07-13T14:31:51;23.45;;;3.45;;
41721;SDS011;27407;24.142;-110.310;2023-07-13T14:34:21;15.15;;;1.98;;
41721;SDS011;27407;24.142;-110.310;2023-07-13T14:36:49;12.85;;;2.83;;
41721;SDS011;27407;24.142;-110.310;2023-07-13T14:39:21;8.07;;;2.60;;
41721;SDS011;27407;24.142;-110.310;2023-07-13T14:41:51;23.85;;;2.92;;
41721;SDS011;27407;24.142;-110.310;2023-07-13T14:44:26;19.08;;;3.45;;
41721;SDS011;27407;24.142;-110.310;2023-07-13T14:46:55;25.67;;;3.42;;
41721;SDS011;27407;24.142;-110.310;2023-07-13T14:49:28;20.42;;;2.78;;
41721;SDS011;27407;24.142;-110.310;2023-07-13T14:51:58;27.50;;;3.33;;
41721;SDS011;27407;24.142;-110.310;2023-07-13T14:54:31;20.67;;;2.85;;
41721;SDS011;27407;24.142;-110.310;2023-07-13T14:56:58;14.07;;;2.83;;
41721;SDS011;27407;24.142;-110.310;2023-07-13T14:59:26;18.85;;;2.53;;
41721;SDS011;27407;24.142;-110.310;2023-07-13T15:01:56;24.88;;;2.83;;
41721;SDS011;27407;24.142;-110.310;2023-07-13T15:04:23;18.55;;;2.13;;
41721;SDS011;27407;24.142;-110.310;2023-07-13T15:06:59;18.00;;;2.90;;
41721;SDS011;27407;24.142;-110.310;2023-07-13T15:09:30;21.75;;;2.40;;
41721;SDS011;27407;24.142;-110.310;2023-07-13T15:11:58;14.93;;;2.42;;
41721;SDS011;27407;24.142;-110.310;2023-07-13T15:14:37;20.13;;;2.60;;